sensor_id;sensor_type;location;lat;lon;timestamp;P1;durP1;ratioP1;P2;durP2;ratioP2
65857;SDS011;53776;47.242;18.674;2022-07-23T00:00:52;13.13;;;5.72;;
65857;SDS011;53776;47.242;18.674;2022-07-23T00:03:17;11.38;;;5.22;;
65857;SDS011;53776;47.242;18.674;2022-07-23T00:05:43;9.93;;;5.57;;
65857;SDS011;53776;47.242;18.674;2022-07-23T00:08:08;13.30;;;5.68;;
65857;SDS011;53776;47.242;18.674;2022-07-23T00:10:34;9.95;;;5.72;;
65857;SDS011;53776;47.242;18.674;2022-07-23T00:13:00;10.20;;;5.22;;
65857;SDS011;53776;47.242;18.674;2022-07-23T00:15:25;7.35;;;5.03;;
65857;SDS011;53776;47.242;18.674;2022-07-23T00:17:51;10.85;;;5.60;;
65857;SDS011;53776;47.242;18.674;2022-07-23T00:20:16;9.35;;;5.10;;
65857;SDS011;53776;47.242;18.674;2022-07-23T00:22:52;12.90;;;5.00;;
65857;SDS011;53776;47.242;18.674;2022-07-23T00:25:20;7.82;;;5.70;;
65857;SDS011;53776;47.242;18.674;2022-07-23T00:27:46;13.20;;;5.57;;
65857;SDS011;53776;47.242;18.674;2022-07-23T00:30:12;12.65;;;5.10;;
65857;SDS011;53776;47.242;18.674;2022-07-23T00:32:51;12.75;;;7.05;;
65857;SDS011;53776;47.242;18.674;2022-07-23T00:35:21;16.55;;;6.70;;
65857;SDS011;53776;47.242;18.674;2022-07-23T00:37:48;11.48;;;5.95;;
65857;SDS011;53776;47.242;18.674;2022-07-23T00:40:13;16.67;;;7.78;;
65857;SDS011;53776;47.242;18.674;2022-07-23T00:42:39;13.05;;;7.43;;
65857;SDS011;53776;47.242;18.674;2022-07-23T00:45:05;16.83;;;8.68;;
65857;SDS011;53776;47.242;18.674;2022-07-23T00:47:31;14.60;;;8.32;;
65857;SDS011;53776;47.242;18.674;2022-07-23T00:49:57;17.15;;;7.32;;
65857;SDS011;53776;47.242;18.674;2022-07-23T00:52:23;18.48;;;8.02;;
65857;SDS011;53776;47.242;18.674;2022-07-23T00:54:48;17.08;;;7.03;;
65857;SDS011;53776;47.242;18.674;2022-07-23T00:57:14;17.25;;;6.95;;
65857;SDS011;53776;47.242;18.674;2022-07-23T00:59:40;13.48;;;6.65;;
65857;SDS011;53776;47.242;18.674;2022-07-23T01:02:06;12.45;;;6.38;;
65857;SDS011;53776;47.242;18.674;2022-07-23T01:04:31;18.20;;;6.20;;
65857;SDS011;53776;47.242;18.674;2022-07-23T01:06:56;20.67;;;6.20;;
65857;SDS011;53776;47.242;18.674;2022-07-23T01:09:22;20.95;;;6.43;;
65857;SDS011;53776;47.242;18.674;2022-07-23T01:11:48;15.65;;;6.07;;
65857;SDS011;53776;47.242;18.674;2022-07-23T01:14:16;15.70;;;6.30;;
65857;SDS011;53776;47.242;18.674;2022-07-23T01:16:44;18.55;;;6.32;;
65857;SDS011;53776;47.242;18.674;2022-07-23T01:19:12;18.08;;;6.43;;
65857;SDS011;53776;47.242;18.674;2022-07-23T01:21:40;13.40;;;5.70;;
65857;SDS011;53776;47.242;18.674;2022-07-23T01:24:16;12.60;;;6.60;;
65857;SDS011;53776;47.242;18.674;2022-07-23T01:26:45;15.27;;;6.45;;
65857;SDS011;53776;47.242;18.674;2022-07-23T01:29:11;12.40;;;6.45;;
65857;SDS011;53776;47.242;18.674;2022-07-23T01:31:37;13.32;;;6.07;;
65857;SDS011;53776;47.242;18.674;2022-07-23T01:34:02;11.50;;;5.63;;
65857;SDS011;53776;47.242;18.674;2022-07-23T01:36:29;9.15;;;5.75;;
65857;SDS011;53776;47.242;18.674;2022-07-23T01:38:54;13.55;;;5.97;;
65857;SDS011;53776;47.242;18.674;2022-07-23T01:41:20;14.32;;;6.07;;
65857;SDS011;53776;47.242;18.674;2022-07-23T01:43:45;9.57;;;6.32;;
65857;SDS011;53776;47.242;18.674;2022-07-23T01:46:11;14.45;;;5.90;;
65857;SDS011;53776;47.242;18.674;2022-07-23T01:48:36;15.02;;;6.20;;
65857;SDS011;53776;47.242;18.674;2022-07-23T01:51:02;18.45;;;6.72;;
65857;SDS011;53776;47.242;18.674;2022-07-23T01:53:27;17.50;;;7.00;;
65857;SDS011;53776;47.242;18.674;2022-07-23T01:55:56;15.82;;;6.50;;
65857;SDS011;53776;47.242;18.674;2022-07-23T01:58:21;16.75;;;6.57;;
65857;SDS011;53776;47.242;18.674;2022-07-23T02:00:47;8.20;;;6.03;;
65857;SDS011;53776;47.242;18.674;2022-07-23T02:03:12;11.60;;;6.25;;
65857;SDS011;53776;47.242;18.674;2022-07-23T02:05:37;17.55;;;7.50;;
65857;SDS011;53776;47.242;18.674;2022-07-23T02:08:03;11.82;;;6.32;;
65857;SDS011;53776;47.242;18.674;2022-07-23T02:10:28;10.35;;;6.30;;
65857;SDS011;53776;47.242;18.674;2022-07-23T02:12:54;13.45;;;7.32;;
65857;SDS011;53776;47.242;18.674;2022-07-23T02:15:19;16.05;;;7.70;;
65857;SDS011;53776;47.242;18.674;2022-07-23T02:17:45;14.60;;;7.28;;
65857;SDS011;53776;47.242;18.674;2022-07-23T02:20:11;15.02;;;7.20;;
65857;SDS011;53776;47.242;18.674;2022-07-23T02:22:37;11.68;;;6.85;;
65857;SDS011;53776;47.242;18.674;2022-07-23T02:25:04;11.43;;;6.03;;
65857;SDS011;53776;47.242;18.674;2022-07-23T02:27:30;9.30;;;6.17;;
65857;SDS011;53776;47.242;18.674;2022-07-23T02:29:56;12.82;;;7.13;;
65857;SDS011;53776;47.242;18.674;2022-07-23T02:32:22;10.63;;;6.35;;
65857;SDS011;53776;47.242;18.674;2022-07-23T02:34:48;8.85;;;6.70;;
65857;SDS011;53776;47.242;18.674;2022-07-23T02:37:13;13.10;;;6.85;;
65857;SDS011;53776;47.242;18.674;2022-07-23T02:39:39;10.48;;;6.78;;
65857;SDS011;53776;47.242;18.674;2022-07-23T02:42:05;16.60;;;6.70;;
65857;SDS011;53776;47.242;18.674;2022-07-23T02:44:30;12.70;;;6.35;;
65857;SDS011;53776;47.242;18.674;2022-07-23T02:46:56;12.75;;;7.28;;
65857;SDS011;53776;47.242;18.674;2022-07-23T02:49:21;13.55;;;6.80;;
65857;SDS011;53776;47.242;18.674;2022-07-23T02:51:47;14.60;;;6.35;;
65857;SDS011;53776;47.242;18.674;2022-07-23T02:54:12;14.75;;;7.35;;
65857;SDS011;53776;47.242;18.674;2022-07-23T02:56:38;11.98;;;7.53;;
65857;SDS011;53776;47.242;18.674;2022-07-23T02:59:03;15.48;;;6.88;;
65857;SDS011;53776;47.242;18.674;2022-07-23T03:01:29;14.63;;;7.47;;
65857;SDS011;53776;47.242;18.674;2022-07-23T03:03:54;13.38;;;6.50;;
65857;SDS011;53776;47.242;18.674;2022-07-23T03:06:19;12.32;;;6.55;;
65857;SDS011;53776;47.242;18.674;2022-07-23T03:08:45;15.02;;;7.00;;
65857;SDS011;53776;47.242;18.674;2022-07-23T03:11:10;14.07;;;7.10;;
65857;SDS011;53776;47.242;18.674;2022-07-23T03:13:39;13.45;;;6.78;;
65857;SDS011;53776;47.242;18.674;2022-07-23T03:16:05;12.32;;;6.53;;
65857;SDS011;53776;47.242;18.674;2022-07-23T03:18:31;14.38;;;6.97;;
65857;SDS011;53776;47.242;18.674;2022-07-23T03:20:56;15.60;;;7.35;;
65857;SDS011;53776;47.242;18.674;2022-07-23T03:23:22;13.93;;;6.13;;
65857;SDS011;53776;47.242;18.674;2022-07-23T03:25:47;14.75;;;6.95;;
65857;SDS011;53776;47.242;18.674;2022-07-23T03:28:13;13.40;;;7.03;;
65857;SDS011;53776;47.242;18.674;2022-07-23T03:30:42;13.32;;;7.35;;
65857;SDS011;53776;47.242;18.674;2022-07-23T03:33:10;22.70;;;7.18;;
65857;SDS011;53776;47.242;18.674;2022-07-23T03:35:35;11.40;;;6.40;;
65857;SDS011;53776;47.242;18.674;2022-07-23T03:38:01;13.88;;;7.22;;
65857;SDS011;53776;47.242;18.674;2022-07-23T03:40:26;8.27;;;6.22;;
65857;SDS011;53776;47.242;18.674;2022-07-23T03:42:51;9.68;;;6.25;;
65857;SDS011;53776;47.242;18.674;2022-07-23T03:45:17;14.00;;;7.22;;
65857;SDS011;53776;47.242;18.674;2022-07-23T03:47:42;12.65;;;7.05;;
65857;SDS011;53776;47.242;18.674;2022-07-23T03:50:09;21.33;;;6.65;;
65857;SDS011;53776;47.242;18.674;2022-07-23T03:52:35;15.65;;;7.10;;
65857;SDS011;53776;47.242;18.674;2022-07-23T03:55:00;11.82;;;7.75;;
65857;SDS011;53776;47.242;18.674;2022-07-23T03:57:26;14.18;;;7.22;;
65857;SDS011;53776;47.242;18.674;2022-07-23T03:59:52;12.23;;;7.03;;
65857;SDS011;53776;47.242;18.674;2022-07-23T04:02:17;11.88;;;7.35;;
65857;SDS011;53776;47.242;18.674;2022-07-23T04:04:42;16.90;;;7.70;;
65857;SDS011;53776;47.242;18.674;2022-07-23T04:07:08;30.83;;;14.63;;
65857;SDS011;53776;47.242;18.674;2022-07-23T04:09:33;56.47;;;27.88;;
65857;SDS011;53776;47.242;18.674;2022-07-23T04:11:59;37.60;;;17.08;;
65857;SDS011;53776;47.242;18.674;2022-07-23T04:14:24;33.67;;;18.17;;
65857;SDS011;53776;47.242;18.674;2022-07-23T04:16:50;18.73;;;8.43;;
65857;SDS011;53776;47.242;18.674;2022-07-23T04:19:15;22.95;;;9.52;;
65857;SDS011;53776;47.242;18.674;2022-07-23T04:21:40;12.60;;;7.35;;
65857;SDS011;53776;47.242;18.674;2022-07-23T04:24:06;13.95;;;7.43;;
65857;SDS011;53776;47.242;18.674;2022-07-23T04:26:31;11.68;;;6.80;;
65857;SDS011;53776;47.242;18.674;2022-07-23T04:28:57;17.38;;;6.60;;
65857;SDS011;53776;47.242;18.674;2022-07-23T04:31:22;11.55;;;7.00;;
65857;SDS011;53776;47.242;18.674;2022-07-23T04:33:48;14.50;;;7.18;;
65857;SDS011;53776;47.242;18.674;2022-07-23T04:36:13;10.65;;;6.70;;
65857;SDS011;53776;47.242;18.674;2022-07-23T04:38:38;13.48;;;6.53;;
65857;SDS011;53776;47.242;18.674;2022-07-23T04:41:04;11.25;;;6.88;;
65857;SDS011;53776;47.242;18.674;2022-07-23T04:43:29;10.38;;;6.85;;
65857;SDS011;53776;47.242;18.674;2022-07-23T04:45:55;11.45;;;7.25;;
65857;SDS011;53776;47.242;18.674;2022-07-23T04:48:20;15.75;;;6.60;;
65857;SDS011;53776;47.242;18.674;2022-07-23T04:50:45;18.30;;;7.30;;
65857;SDS011;53776;47.242;18.674;2022-07-23T04:53:11;20.55;;;7.05;;
65857;SDS011;53776;47.242;18.674;2022-07-23T04:55:36;10.23;;;6.80;;
65857;SDS011;53776;47.242;18.674;2022-07-23T04:58:02;10.13;;;5.68;;
65857;SDS011;53776;47.242;18.674;2022-07-23T05:00:27;13.55;;;6.65;;
65857;SDS011;53776;47.242;18.674;2022-07-23T05:02:52;10.20;;;6.18;;
65857;SDS011;53776;47.242;18.674;2022-07-23T05:05:18;13.07;;;6.85;;
65857;SDS011;53776;47.242;18.674;2022-07-23T05:07:43;15.70;;;6.75;;
65857;SDS011;53776;47.242;18.674;2022-07-23T05:10:09;15.52;;;6.88;;
65857;SDS011;53776;47.242;18.674;2022-07-23T05:12:34;13.55;;;6.13;;
65857;SDS011;53776;47.242;18.674;2022-07-23T05:15:00;15.55;;;5.57;;
65857;SDS011;53776;47.242;18.674;2022-07-23T05:17:25;14.15;;;5.93;;
65857;SDS011;53776;47.242;18.674;2022-07-23T05:19:50;13.73;;;6.10;;
65857;SDS011;53776;47.242;18.674;2022-07-23T05:22:16;20.67;;;5.60;;
65857;SDS011;53776;47.242;18.674;2022-07-23T05:24:41;12.95;;;5.65;;
65857;SDS011;53776;47.242;18.674;2022-07-23T05:27:08;12.35;;;6.15;;
65857;SDS011;53776;47.242;18.674;2022-07-23T05:29:33;12.00;;;5.65;;
65857;SDS011;53776;47.242;18.674;2022-07-23T05:31:59;13.45;;;5.85;;
65857;SDS011;53776;47.242;18.674;2022-07-23T05:34:24;13.35;;;5.60;;
65857;SDS011;53776;47.242;18.674;2022-07-23T05:36:50;21.02;;;6.57;;
65857;SDS011;53776;47.242;18.674;2022-07-23T05:39:15;9.65;;;6.30;;
65857;SDS011;53776;47.242;18.674;2022-07-23T05:41:41;10.88;;;6.53;;
65857;SDS011;53776;47.242;18.674;2022-07-23T05:44:06;15.50;;;6.57;;
65857;SDS011;53776;47.242;18.674;2022-07-23T05:46:31;12.27;;;6.38;;
65857;SDS011;53776;47.242;18.674;2022-07-23T05:48:57;12.02;;;6.60;;
65857;SDS011;53776;47.242;18.674;2022-07-23T05:51:23;9.63;;;5.75;;
65857;SDS011;53776;47.242;18.674;2022-07-23T05:53:49;18.63;;;6.78;;
65857;SDS011;53776;47.242;18.674;2022-07-23T05:56:15;17.63;;;6.53;;
65857;SDS011;53776;47.242;18.674;2022-07-23T05:58:42;14.13;;;7.10;;
65857;SDS011;53776;47.242;18.674;2022-07-23T06:01:07;14.38;;;7.28;;
65857;SDS011;53776;47.242;18.674;2022-07-23T06:03:33;16.38;;;7.15;;
65857;SDS011;53776;47.242;18.674;2022-07-23T06:05:59;17.42;;;6.65;;
65857;SDS011;53776;47.242;18.674;2022-07-23T06:08:24;21.02;;;7.18;;
65857;SDS011;53776;47.242;18.674;2022-07-23T06:10:50;13.70;;;6.97;;
65857;SDS011;53776;47.242;18.674;2022-07-23T06:13:17;22.00;;;8.25;;
65857;SDS011;53776;47.242;18.674;2022-07-23T06:15:43;25.33;;;8.20;;
65857;SDS011;53776;47.242;18.674;2022-07-23T06:18:09;16.08;;;7.95;;
65857;SDS011;53776;47.242;18.674;2022-07-23T06:20:34;15.32;;;8.10;;
65857;SDS011;53776;47.242;18.674;2022-07-23T06:23:00;22.48;;;6.85;;
65857;SDS011;53776;47.242;18.674;2022-07-23T06:25:25;11.93;;;7.72;;
65857;SDS011;53776;47.242;18.674;2022-07-23T06:27:51;14.32;;;7.13;;
65857;SDS011;53776;47.242;18.674;2022-07-23T06:30:16;16.27;;;7.13;;
65857;SDS011;53776;47.242;18.674;2022-07-23T06:32:42;14.77;;;7.03;;
65857;SDS011;53776;47.242;18.674;2022-07-23T06:35:08;17.70;;;6.85;;
65857;SDS011;53776;47.242;18.674;2022-07-23T06:37:33;19.77;;;6.90;;
65857;SDS011;53776;47.242;18.674;2022-07-23T06:39:58;16.70;;;7.00;;
65857;SDS011;53776;47.242;18.674;2022-07-23T06:42:24;13.85;;;6.55;;
65857;SDS011;53776;47.242;18.674;2022-07-23T06:44:49;11.52;;;6.30;;
65857;SDS011;53776;47.242;18.674;2022-07-23T06:47:15;12.02;;;6.53;;
65857;SDS011;53776;47.242;18.674;2022-07-23T06:49:40;23.10;;;5.75;;
65857;SDS011;53776;47.242;18.674;2022-07-23T06:52:06;17.05;;;6.20;;
65857;SDS011;53776;47.242;18.674;2022-07-23T06:54:32;14.30;;;5.63;;
65857;SDS011;53776;47.242;18.674;2022-07-23T06:56:57;17.45;;;5.93;;
65857;SDS011;53776;47.242;18.674;2022-07-23T06:59:23;9.20;;;5.40;;
65857;SDS011;53776;47.242;18.674;2022-07-23T07:01:48;8.43;;;6.13;;
65857;SDS011;53776;47.242;18.674;2022-07-23T07:04:14;17.70;;;6.22;;
65857;SDS011;53776;47.242;18.674;2022-07-23T07:06:39;14.13;;;5.85;;
65857;SDS011;53776;47.242;18.674;2022-07-23T07:09:04;11.17;;;5.50;;
65857;SDS011;53776;47.242;18.674;2022-07-23T07:11:30;16.85;;;5.75;;
65857;SDS011;53776;47.242;18.674;2022-07-23T07:13:55;9.15;;;5.25;;
65857;SDS011;53776;47.242;18.674;2022-07-23T07:16:21;12.53;;;5.70;;
65857;SDS011;53776;47.242;18.674;2022-07-23T07:18:46;16.88;;;5.60;;
65857;SDS011;53776;47.242;18.674;2022-07-23T07:21:12;14.87;;;5.23;;
65857;SDS011;53776;47.242;18.674;2022-07-23T07:23:37;10.65;;;5.20;;
65857;SDS011;53776;47.242;18.674;2022-07-23T07:26:02;8.13;;;5.20;;
65857;SDS011;53776;47.242;18.674;2022-07-23T07:28:28;8.52;;;5.20;;
65857;SDS011;53776;47.242;18.674;2022-07-23T07:30:53;9.85;;;4.70;;
65857;SDS011;53776;47.242;18.674;2022-07-23T07:33:19;11.48;;;4.97;;
65857;SDS011;53776;47.242;18.674;2022-07-23T07:35:46;15.38;;;5.38;;
65857;SDS011;53776;47.242;18.674;2022-07-23T07:38:11;10.13;;;4.80;;
65857;SDS011;53776;47.242;18.674;2022-07-23T07:40:37;13.15;;;5.60;;
65857;SDS011;53776;47.242;18.674;2022-07-23T07:43:02;9.68;;;4.95;;
65857;SDS011;53776;47.242;18.674;2022-07-23T07:45:28;15.23;;;5.03;;
65857;SDS011;53776;47.242;18.674;2022-07-23T07:47:54;13.75;;;4.25;;
65857;SDS011;53776;47.242;18.674;2022-07-23T07:50:20;13.60;;;4.88;;
65857;SDS011;53776;47.242;18.674;2022-07-23T07:52:46;19.27;;;5.00;;
65857;SDS011;53776;47.242;18.674;2022-07-23T07:55:11;11.85;;;4.82;;
65857;SDS011;53776;47.242;18.674;2022-07-23T07:57:37;14.50;;;4.93;;
65857;SDS011;53776;47.242;18.674;2022-07-23T08:00:07;17.23;;;4.90;;
65857;SDS011;53776;47.242;18.674;2022-07-23T08:02:41;9.98;;;4.50;;
65857;SDS011;53776;47.242;18.674;2022-07-23T08:07:36;13.47;;;4.77;;
65857;SDS011;53776;47.242;18.674;2022-07-23T08:10:04;9.95;;;4.72;;
65857;SDS011;53776;47.242;18.674;2022-07-23T08:12:37;14.57;;;4.77;;
65857;SDS011;53776;47.242;18.674;2022-07-23T08:15:14;9.48;;;5.00;;
65857;SDS011;53776;47.242;18.674;2022-07-23T08:17:43;19.45;;;5.00;;
65857;SDS011;53776;47.242;18.674;2022-07-23T08:20:11;8.57;;;4.90;;
65857;SDS011;53776;47.242;18.674;2022-07-23T08:22:50;15.27;;;5.43;;
65857;SDS011;53776;47.242;18.674;2022-07-23T08:25:21;15.02;;;4.63;;
65857;SDS011;53776;47.242;18.674;2022-07-23T08:27:49;15.63;;;5.50;;
65857;SDS011;53776;47.242;18.674;2022-07-23T08:30:15;15.48;;;5.00;;
65857;SDS011;53776;47.242;18.674;2022-07-23T08:32:49;14.00;;;5.35;;
65857;SDS011;53776;47.242;18.674;2022-07-23T08:37:55;8.60;;;5.32;;
65857;SDS011;53776;47.242;18.674;2022-07-23T08:40:21;14.27;;;5.20;;
65857;SDS011;53776;47.242;18.674;2022-07-23T08:42:47;14.07;;;4.87;;
65857;SDS011;53776;47.242;18.674;2022-07-23T08:45:15;10.98;;;5.00;;
65857;SDS011;53776;47.242;18.674;2022-07-23T08:47:43;13.80;;;5.38;;
65857;SDS011;53776;47.242;18.674;2022-07-23T08:50:09;10.38;;;4.60;;
65857;SDS011;53776;47.242;18.674;2022-07-23T08:52:35;10.52;;;4.38;;
65857;SDS011;53776;47.242;18.674;2022-07-23T08:55:02;9.20;;;3.92;;
65857;SDS011;53776;47.242;18.674;2022-07-23T08:57:28;11.87;;;4.53;;
65857;SDS011;53776;47.242;18.674;2022-07-23T08:59:54;8.48;;;3.90;;
65857;SDS011;53776;47.242;18.674;2022-07-23T09:02:19;9.45;;;4.28;;
65857;SDS011;53776;47.242;18.674;2022-07-23T09:04:45;11.83;;;4.00;;
65857;SDS011;53776;47.242;18.674;2022-07-23T09:07:10;16.67;;;4.50;;
65857;SDS011;53776;47.242;18.674;2022-07-23T09:09:36;14.95;;;4.68;;
65857;SDS011;53776;47.242;18.674;2022-07-23T09:12:04;10.70;;;4.20;;
65857;SDS011;53776;47.242;18.674;2022-07-23T09:14:35;11.73;;;4.45;;
65857;SDS011;53776;47.242;18.674;2022-07-23T09:17:10;13.60;;;4.22;;
65857;SDS011;53776;47.242;18.674;2022-07-23T09:19:37;12.95;;;4.57;;
65857;SDS011;53776;47.242;18.674;2022-07-23T09:25:07;18.02;;;4.35;;
65857;SDS011;53776;47.242;18.674;2022-07-23T09:27:46;8.57;;;4.35;;
65857;SDS011;53776;47.242;18.674;2022-07-23T09:30:18;6.85;;;4.20;;
65857;SDS011;53776;47.242;18.674;2022-07-23T09:32:44;12.52;;;4.15;;
65857;SDS011;53776;47.242;18.674;2022-07-23T09:38:12;9.10;;;4.03;;
65857;SDS011;53776;47.242;18.674;2022-07-23T09:40:37;14.57;;;4.35;;
65857;SDS011;53776;47.242;18.674;2022-07-23T09:43:03;14.10;;;4.22;;
65857;SDS011;53776;47.242;18.674;2022-07-23T09:45:28;11.13;;;4.10;;
65857;SDS011;53776;47.242;18.674;2022-07-23T09:50:40;7.18;;;4.07;;
65857;SDS011;53776;47.242;18.674;2022-07-23T09:53:09;8.73;;;4.10;;
65857;SDS011;53776;47.242;18.674;2022-07-23T09:55:48;12.40;;;4.28;;
65857;SDS011;53776;47.242;18.674;2022-07-23T09:58:14;9.02;;;3.97;;
65857;SDS011;53776;47.242;18.674;2022-07-23T10:00:42;9.25;;;4.32;;
65857;SDS011;53776;47.242;18.674;2022-07-23T10:03:09;14.18;;;3.88;;
65857;SDS011;53776;47.242;18.674;2022-07-23T10:05:36;9.43;;;3.97;;
65857;SDS011;53776;47.242;18.674;2022-07-23T10:08:02;12.05;;;3.80;;
65857;SDS011;53776;47.242;18.674;2022-07-23T10:10:28;20.67;;;4.20;;
65857;SDS011;53776;47.242;18.674;2022-07-23T10:15:27;11.00;;;4.28;;
65857;SDS011;53776;47.242;18.674;2022-07-23T10:17:52;9.02;;;3.80;;
65857;SDS011;53776;47.242;18.674;2022-07-23T10:20:18;11.70;;;3.95;;
65857;SDS011;53776;47.242;18.674;2022-07-23T10:25:40;9.55;;;3.78;;
65857;SDS011;53776;47.242;18.674;2022-07-23T10:36:19;5.05;;;3.78;;
65857;SDS011;53776;47.242;18.674;2022-07-23T10:41:17;11.07;;;3.65;;
65857;SDS011;53776;47.242;18.674;2022-07-23T10:44:06;22.50;;;4.30;;
65857;SDS011;53776;47.242;18.674;2022-07-23T10:47:01;11.80;;;3.90;;
65857;SDS011;53776;47.242;18.674;2022-07-23T10:49:46;11.25;;;3.92;;
65857;SDS011;53776;47.242;18.674;2022-07-23T10:52:27;9.02;;;3.95;;
65857;SDS011;53776;47.242;18.674;2022-07-23T10:54:55;9.00;;;3.80;;
65857;SDS011;53776;47.242;18.674;2022-07-23T10:57:25;13.35;;;4.22;;
65857;SDS011;53776;47.242;18.674;2022-07-23T11:02:43;11.75;;;4.00;;
65857;SDS011;53776;47.242;18.674;2022-07-23T11:05:11;10.18;;;3.60;;
65857;SDS011;53776;47.242;18.674;2022-07-23T11:10:32;7.70;;;3.92;;
65857;SDS011;53776;47.242;18.674;2022-07-23T11:13:33;13.05;;;4.00;;
65857;SDS011;53776;47.242;18.674;2022-07-23T11:34:28;13.17;;;3.57;;
65857;SDS011;53776;47.242;18.674;2022-07-23T11:36:56;7.05;;;4.32;;
65857;SDS011;53776;47.242;18.674;2022-07-23T11:39:22;12.52;;;4.15;;
65857;SDS011;53776;47.242;18.674;2022-07-23T11:41:54;15.80;;;4.43;;
65857;SDS011;53776;47.242;18.674;2022-07-23T11:44:27;9.65;;;4.30;;
65857;SDS011;53776;47.242;18.674;2022-07-23T11:46:58;8.63;;;4.10;;
65857;SDS011;53776;47.242;18.674;2022-07-23T11:49:24;12.23;;;4.10;;
65857;SDS011;53776;47.242;18.674;2022-07-23T11:52:12;6.32;;;3.97;;
65857;SDS011;53776;47.242;18.674;2022-07-23T11:54:50;7.57;;;4.18;;
65857;SDS011;53776;47.242;18.674;2022-07-23T11:57:20;10.60;;;3.90;;
65857;SDS011;53776;47.242;18.674;2022-07-23T11:59:51;7.15;;;4.07;;
65857;SDS011;53776;47.242;18.674;2022-07-23T12:02:19;13.35;;;4.07;;
65857;SDS011;53776;47.242;18.674;2022-07-23T12:04:47;13.45;;;4.22;;
65857;SDS011;53776;47.242;18.674;2022-07-23T12:09:58;9.57;;;3.70;;
65857;SDS011;53776;47.242;18.674;2022-07-23T12:12:25;13.85;;;4.70;;
65857;SDS011;53776;47.242;18.674;2022-07-23T12:14:52;5.97;;;4.20;;
65857;SDS011;53776;47.242;18.674;2022-07-23T12:17:29;8.32;;;4.53;;
65857;SDS011;53776;47.242;18.674;2022-07-23T12:19:57;6.85;;;4.50;;
65857;SDS011;53776;47.242;18.674;2022-07-23T12:22:25;9.23;;;4.63;;
65857;SDS011;53776;47.242;18.674;2022-07-23T12:24:58;7.20;;;4.13;;
65857;SDS011;53776;47.242;18.674;2022-07-23T12:27:27;7.35;;;4.22;;
65857;SDS011;53776;47.242;18.674;2022-07-23T12:29:53;6.20;;;4.00;;
65857;SDS011;53776;47.242;18.674;2022-07-23T12:32:19;6.22;;;4.18;;
65857;SDS011;53776;47.242;18.674;2022-07-23T12:37:30;14.93;;;4.25;;
65857;SDS011;53776;47.242;18.674;2022-07-23T12:39:58;13.35;;;4.35;;
65857;SDS011;53776;47.242;18.674;2022-07-23T12:42:23;6.80;;;4.07;;
65857;SDS011;53776;47.242;18.674;2022-07-23T12:45:05;10.40;;;3.90;;
65857;SDS011;53776;47.242;18.674;2022-07-23T12:53:08;10.57;;;4.30;;
65857;SDS011;53776;47.242;18.674;2022-07-23T12:55:35;9.82;;;4.50;;
65857;SDS011;53776;47.242;18.674;2022-07-23T13:06:20;12.43;;;5.13;;
65857;SDS011;53776;47.242;18.674;2022-07-23T13:08:46;6.53;;;4.55;;
65857;SDS011;53776;47.242;18.674;2022-07-23T13:11:11;8.40;;;5.30;;
65857;SDS011;53776;47.242;18.674;2022-07-23T13:13:37;13.95;;;5.38;;
65857;SDS011;53776;47.242;18.674;2022-07-23T13:16:02;8.32;;;4.82;;
65857;SDS011;53776;47.242;18.674;2022-07-23T13:18:29;16.70;;;5.53;;
65857;SDS011;53776;47.242;18.674;2022-07-23T13:20:55;9.70;;;4.63;;
65857;SDS011;53776;47.242;18.674;2022-07-23T13:23:21;15.35;;;4.88;;
65857;SDS011;53776;47.242;18.674;2022-07-23T13:25:47;10.98;;;5.20;;
65857;SDS011;53776;47.242;18.674;2022-07-23T13:28:13;14.27;;;4.80;;
65857;SDS011;53776;47.242;18.674;2022-07-23T13:30:40;15.50;;;5.10;;
65857;SDS011;53776;47.242;18.674;2022-07-23T13:33:06;9.52;;;4.60;;
65857;SDS011;53776;47.242;18.674;2022-07-23T13:35:32;7.75;;;4.95;;
65857;SDS011;53776;47.242;18.674;2022-07-23T13:37:59;15.75;;;5.60;;
65857;SDS011;53776;47.242;18.674;2022-07-23T13:40:25;7.65;;;6.20;;
65857;SDS011;53776;47.242;18.674;2022-07-23T13:42:50;11.13;;;6.10;;
65857;SDS011;53776;47.242;18.674;2022-07-23T13:45:16;10.25;;;6.88;;
65857;SDS011;53776;47.242;18.674;2022-07-23T13:47:41;10.52;;;7.03;;
65857;SDS011;53776;47.242;18.674;2022-07-23T13:50:07;8.55;;;7.00;;
65857;SDS011;53776;47.242;18.674;2022-07-23T13:52:33;13.05;;;7.25;;
65857;SDS011;53776;47.242;18.674;2022-07-23T13:55:00;12.23;;;8.32;;
65857;SDS011;53776;47.242;18.674;2022-07-23T13:57:26;13.63;;;8.27;;
65857;SDS011;53776;47.242;18.674;2022-07-23T13:59:52;12.38;;;7.97;;
65857;SDS011;53776;47.242;18.674;2022-07-23T14:02:17;10.45;;;8.63;;
65857;SDS011;53776;47.242;18.674;2022-07-23T14:04:43;22.48;;;9.40;;
65857;SDS011;53776;47.242;18.674;2022-07-23T14:07:09;11.50;;;8.70;;
65857;SDS011;53776;47.242;18.674;2022-07-23T14:09:34;15.45;;;9.32;;
65857;SDS011;53776;47.242;18.674;2022-07-23T14:12:00;17.92;;;9.98;;
65857;SDS011;53776;47.242;18.674;2022-07-23T14:14:26;17.77;;;9.98;;
65857;SDS011;53776;47.242;18.674;2022-07-23T14:16:51;17.50;;;9.80;;
65857;SDS011;53776;47.242;18.674;2022-07-23T14:19:17;20.80;;;9.97;;
65857;SDS011;53776;47.242;18.674;2022-07-23T14:21:42;14.25;;;10.00;;
65857;SDS011;53776;47.242;18.674;2022-07-23T14:24:08;21.67;;;12.20;;
65857;SDS011;53776;47.242;18.674;2022-07-23T14:26:33;16.52;;;12.63;;
65857;SDS011;53776;47.242;18.674;2022-07-23T14:28:59;21.27;;;13.20;;
65857;SDS011;53776;47.242;18.674;2022-07-23T14:31:25;22.30;;;13.73;;
65857;SDS011;53776;47.242;18.674;2022-07-23T14:33:51;17.48;;;13.57;;
65857;SDS011;53776;47.242;18.674;2022-07-23T14:36:16;20.85;;;14.13;;
65857;SDS011;53776;47.242;18.674;2022-07-23T14:38:42;24.27;;;14.00;;
65857;SDS011;53776;47.242;18.674;2022-07-23T14:41:07;28.67;;;13.85;;
65857;SDS011;53776;47.242;18.674;2022-07-23T14:43:33;18.85;;;13.77;;
65857;SDS011;53776;47.242;18.674;2022-07-23T14:45:59;20.83;;;13.93;;
65857;SDS011;53776;47.242;18.674;2022-07-23T14:48:25;18.80;;;12.82;;
65857;SDS011;53776;47.242;18.674;2022-07-23T14:50:50;16.77;;;12.00;;
65857;SDS011;53776;47.242;18.674;2022-07-23T14:53:16;15.85;;;10.80;;
65857;SDS011;53776;47.242;18.674;2022-07-23T14:55:41;17.30;;;10.30;;
65857;SDS011;53776;47.242;18.674;2022-07-23T14:58:07;16.58;;;8.38;;
65857;SDS011;53776;47.242;18.674;2022-07-23T15:00:32;13.77;;;8.07;;
65857;SDS011;53776;47.242;18.674;2022-07-23T15:02:58;13.20;;;8.80;;
65857;SDS011;53776;47.242;18.674;2022-07-23T15:05:23;14.27;;;8.98;;
65857;SDS011;53776;47.242;18.674;2022-07-23T15:07:49;17.98;;;9.80;;
65857;SDS011;53776;47.242;18.674;2022-07-23T15:10:15;12.77;;;8.90;;
65857;SDS011;53776;47.242;18.674;2022-07-23T15:12:40;14.15;;;7.82;;
65857;SDS011;53776;47.242;18.674;2022-07-23T15:15:06;15.55;;;7.45;;
65857;SDS011;53776;47.242;18.674;2022-07-23T15:17:32;10.35;;;7.60;;
65857;SDS011;53776;47.242;18.674;2022-07-23T15:19:58;9.75;;;7.50;;
65857;SDS011;53776;47.242;18.674;2022-07-23T15:22:23;9.48;;;7.30;;
65857;SDS011;53776;47.242;18.674;2022-07-23T15:24:49;155.13;;;11.60;;
65857;SDS011;53776;47.242;18.674;2022-07-23T15:27:14;46.10;;;9.45;;
65857;SDS011;53776;47.242;18.674;2022-07-23T15:29:41;64.45;;;9.32;;
65857;SDS011;53776;47.242;18.674;2022-07-23T15:32:07;80.93;;;9.70;;
65857;SDS011;53776;47.242;18.674;2022-07-23T15:34:32;142.70;;;12.52;;